createdAt,value
2017-07-12T00:00:02.362Z,22.29
2017-07-12T00:01:03.034Z,22.25
2017-07-12T00:02:02.879Z,22.29
2017-07-12T00:03:02.760Z,22.3
2017-07-12T00:04:03.118Z,22.23
2017-07-12T00:05:02.494Z,22.22
2017-07-12T00:06:02.987Z,22.32
2017-07-12T00:07:02.871Z,22.23
2017-07-12T00:08:03.342Z,22.23
2017-07-12T00:09:02.921Z,22.14
2017-07-12T00:10:03.279Z,22.11
2017-07-12T00:11:03.529Z,22.17
2017-07-12T00:12:03.321Z,22.17
2017-07-12T00:13:03.019Z,22.02
2017-07-12T00:14:03.538Z,22.02
2017-07-12T00:15:03.068Z,22.02
2017-07-12T00:16:03.156Z,22
2017-07-12T00:17:03.119Z,21.96
2017-07-12T00:18:03.160Z,22.04
2017-07-12T00:19:03.168Z,22.02
2017-07-12T00:20:03.623Z,22.04
2017-07-12T00:21:03.223Z,21.98
2017-07-12T00:22:03.595Z,21.95
2017-07-12T00:23:02.944Z,21.99
2017-07-12T00:24:03.293Z,21.89
2017-07-12T00:25:03.131Z,21.95
2017-07-12T00:26:03.675Z,21.91
2017-07-12T00:27:03.701Z,21.92
2017-07-12T00:28:03.738Z,21.85
2017-07-12T00:29:03.419Z,21.88
2017-07-12T00:30:03.451Z,21.83
2017-07-12T00:31:03.795Z,21.77
2017-07-12T00:32:03.514Z,21.82
2017-07-12T00:33:03.520Z,21.76
2017-07-12T00:34:03.869Z,21.76
2017-07-12T00:35:03.243Z,21.83
2017-07-12T00:36:04.033Z,21.79
2017-07-12T00:37:03.945Z,21.69
2017-07-12T00:38:03.341Z,21.73
2017-07-12T00:39:03.677Z,21.72
2017-07-12T00:40:04.020Z,21.7
2017-07-12T00:41:03.725Z,21.69
2017-07-12T00:42:03.747Z,21.6
2017-07-12T00:43:03.785Z,21.58
2017-07-12T00:44:03.799Z,21.6
2017-07-12T00:45:04.146Z,21.58
2017-07-12T00:46:03.841Z,21.6
2017-07-12T00:47:04.191Z,21.6
2017-07-12T00:48:03.897Z,21.55
2017-07-12T00:49:04.243Z,21.52
2017-07-12T00:50:03.940Z,21.6
2017-07-12T00:51:03.974Z,21.58
2017-07-12T00:52:04.002Z,21.51
2017-07-12T00:53:03.692Z,21.55
2017-07-12T00:54:04.041Z,21.48
2017-07-12T00:55:04.075Z,21.51
2017-07-12T00:56:04.095Z,21.48
2017-07-12T00:57:04.436Z,21.43
2017-07-12T00:58:04.469Z,21.42
2017-07-12T00:59:04.171Z,21.48
2017-07-12T01:00:04.191Z,21.46
2017-07-12T01:01:04.219Z,21.37
2017-07-12T01:02:03.914Z,21.39
2017-07-12T01:03:03.951Z,21.45
2017-07-12T01:04:04.287Z,21.39
2017-07-12T01:05:04.643Z,21.35
2017-07-12T01:06:04.661Z,21.36
2017-07-12T01:07:04.360Z,21.4
2017-07-12T01:08:04.708Z,21.32
2017-07-12T01:09:04.089Z,21.36
2017-07-12T01:10:04.758Z,21.36
2017-07-12T01:11:04.456Z,21.32
2017-07-12T01:12:04.163Z,21.32
2017-07-12T01:13:04.868Z,21.29
2017-07-12T01:14:04.860Z,21.27
2017-07-12T01:15:04.877Z,21.24
2017-07-12T01:16:04.577Z,21.25
2017-07-12T01:17:04.936Z,21.25
2017-07-12T01:18:04.970Z,21.32
2017-07-12T01:19:04.776Z,21.18
2017-07-12T01:20:04.680Z,21.21
2017-07-12T01:21:05.025Z,21.17
2017-07-12T01:22:04.724Z,21.21
2017-07-12T01:23:04.754Z,21.2
2017-07-12T01:24:05.104Z,21.17
2017-07-12T01:25:04.799Z,21.12
2017-07-12T01:26:05.151Z,21.11
2017-07-12T01:27:04.848Z,21.09
2017-07-12T01:28:04.550Z,21.14
2017-07-12T01:29:04.575Z,21
2017-07-12T01:30:05.260Z,21.02
2017-07-12T01:31:05.046Z,21.07
2017-07-12T01:32:04.988Z,20.99
2017-07-12T01:33:05.318Z,21.02
2017-07-12T01:34:05.111Z,20.99
2017-07-12T01:35:05.545Z,20.97
2017-07-12T01:36:05.158Z,21.03
2017-07-12T01:37:05.337Z,20.96
2017-07-12T01:38:05.120Z,20.93
2017-07-12T01:39:05.151Z,20.9
2017-07-12T01:40:05.174Z,20.95
2017-07-12T01:41:05.196Z,20.95
2017-07-12T01:42:05.481Z,20.85
2017-07-12T01:43:05.785Z,20.88
2017-07-12T01:44:05.278Z,20.88
2017-07-12T01:45:04.965Z,20.84
2017-07-12T01:46:05.338Z,20.87
2017-07-12T01:47:05.656Z,20.85
2017-07-12T01:48:05.742Z,20.8
2017-07-12T01:49:05.386Z,20.8
2017-07-12T01:50:05.413Z,20.84
2017-07-12T01:51:05.106Z,20.77
2017-07-12T01:52:05.791Z,20.87
2017-07-12T01:53:05.153Z,20.8
2017-07-12T01:54:05.827Z,20.84
2017-07-12T01:55:05.204Z,20.81
2017-07-12T01:56:05.888Z,20.75
2017-07-12T01:57:05.893Z,20.75
2017-07-12T01:58:05.277Z,20.8
2017-07-12T01:59:05.628Z,20.77
2017-07-12T02:00:05.974Z,20.75
2017-07-12T02:01:06.001Z,20.69
2017-07-12T02:02:05.710Z,20.69
2017-07-12T02:03:05.724Z,20.69
2017-07-12T02:04:05.746Z,20.7
2017-07-12T02:05:06.123Z,20.7
2017-07-12T02:06:05.819Z,20.72
2017-07-12T02:07:05.818Z,20.7
2017-07-12T02:08:06.190Z,20.62
2017-07-12T02:09:05.862Z,20.59
2017-07-12T02:10:05.957Z,20.63
2017-07-12T02:11:05.589Z,20.67
2017-07-12T02:12:05.940Z,20.62
2017-07-12T02:13:06.291Z,20.65
2017-07-12T02:14:06.003Z,20.62
2017-07-12T02:15:06.008Z,20.63
2017-07-12T02:16:06.364Z,20.62
2017-07-12T02:17:06.057Z,20.52
2017-07-12T02:18:06.409Z,20.55
2017-07-12T02:19:05.784Z,20.63
2017-07-12T02:20:05.806Z,20.59
2017-07-12T02:21:05.829Z,20.63
2017-07-12T02:22:06.178Z,20.6
2017-07-12T02:23:06.197Z,20.58
2017-07-12T02:24:06.838Z,20.55
2017-07-12T02:25:06.246Z,20.55
2017-07-12T02:26:06.273Z,20.56
2017-07-12T02:27:06.853Z,20.56
2017-07-12T02:28:05.999Z,20.59
2017-07-12T02:29:06.666Z,20.55
2017-07-12T02:30:06.042Z,20.44
2017-07-12T02:31:06.723Z,20.51
2017-07-12T02:32:06.738Z,20.44
2017-07-12T02:33:06.441Z,20.52
2017-07-12T02:34:06.784Z,20.55
2017-07-12T02:35:06.490Z,20.48
2017-07-12T02:36:06.187Z,20.48
2017-07-12T02:37:06.210Z,20.55
2017-07-12T02:38:06.235Z,20.47
2017-07-12T02:39:06.905Z,20.5
2017-07-12T02:40:06.923Z,20.43
2017-07-12T02:41:06.956Z,20.44
2017-07-12T02:42:06.654Z,20.36
2017-07-12T02:43:06.680Z,20.44
2017-07-12T02:44:07.030Z,20.4
2017-07-12T02:45:07.045Z,20.37
2017-07-12T02:46:06.761Z,20.41
2017-07-12T02:47:06.446Z,20.29
2017-07-12T02:48:07.115Z,20.36
2017-07-12T02:49:06.818Z,20.28
2017-07-12T02:50:06.843Z,20.34
2017-07-12T02:51:07.189Z,20.4
2017-07-12T02:52:06.573Z,20.39
2017-07-12T02:53:06.919Z,20.39
2017-07-12T02:54:07.261Z,20.25
2017-07-12T02:55:06.959Z,20.26
2017-07-12T02:56:07.104Z,20.29
2017-07-12T02:57:06.807Z,20.28
2017-07-12T02:58:07.356Z,20.29
2017-07-12T02:59:07.061Z,20.25
2017-07-12T03:00:07.081Z,20.24
2017-07-12T03:01:07.430Z,20.24
2017-07-12T03:02:07.250Z,20.25
2017-07-12T03:03:06.826Z,20.29
2017-07-12T03:04:07.176Z,20.24
2017-07-12T03:05:07.643Z,20.16
2017-07-12T03:06:07.353Z,20.14
2017-07-12T03:07:07.533Z,20.28
2017-07-12T03:08:07.391Z,20.26
2017-07-12T03:09:06.977Z,20.28
2017-07-12T03:10:07.660Z,20.31
2017-07-12T03:11:07.661Z,20.25
2017-07-12T03:12:07.696Z,20.29
2017-07-12T03:13:07.389Z,20.26
2017-07-12T03:14:07.962Z,20.16
2017-07-12T03:15:07.885Z,20.14
2017-07-12T03:16:07.459Z,20.28
2017-07-12T03:17:07.481Z,20.13
2017-07-12T03:18:07.506Z,20.21
2017-07-12T03:19:07.862Z,20.16
2017-07-12T03:20:07.548Z,20.18
2017-07-12T03:21:07.704Z,20.19
2017-07-12T03:22:07.598Z,20.16
2017-07-12T03:23:07.945Z,20.14
2017-07-12T03:24:07.970Z,20.11
2017-07-12T03:25:07.356Z,20.19
2017-07-12T03:26:08.031Z,20.13
2017-07-12T03:27:07.836Z,20.18
2017-07-12T03:28:07.744Z,20.18
2017-07-12T03:29:07.760Z,20.11
2017-07-12T03:30:08.106Z,20.16
2017-07-12T03:31:08.203Z,20.14
2017-07-12T03:32:08.154Z,20.14
2017-07-12T03:33:07.853Z,20.13
2017-07-12T03:34:08.205Z,20.21
2017-07-12T03:35:07.997Z,20.11
2017-07-12T03:36:07.608Z,20.14
2017-07-12T03:37:08.093Z,20.11
2017-07-12T03:38:07.650Z,20.11
2017-07-12T03:39:07.824Z,20.14
2017-07-12T03:40:08.030Z,20.21
2017-07-12T03:41:08.371Z,20.14
2017-07-12T03:42:07.753Z,20.13
2017-07-12T03:43:08.087Z,20.13
2017-07-12T03:44:08.442Z,20.11
2017-07-12T03:45:08.134Z,20.14
2017-07-12T03:46:08.166Z,20.13
2017-07-12T03:47:08.514Z,20.13
2017-07-12T03:48:08.535Z,20.1
2017-07-12T03:49:07.930Z,20.11
2017-07-12T03:50:08.322Z,20.07
2017-07-12T03:51:08.731Z,20.07
2017-07-12T03:52:08.306Z,20.03
2017-07-12T03:53:08.325Z,20.06
2017-07-12T03:54:08.352Z,20.03
2017-07-12T03:55:08.373Z,20.07
2017-07-12T03:56:08.394Z,20.06
2017-07-12T03:57:08.866Z,20.04
2017-07-12T03:58:08.767Z,20.06
2017-07-12T03:59:08.240Z,20.13
2017-07-12T04:00:08.494Z,20.04
2017-07-12T04:01:08.516Z,20.06
2017-07-12T04:02:08.533Z,20.09
2017-07-12T04:03:08.891Z,20.14
2017-07-12T04:04:08.261Z,20.11
2017-07-12T04:05:08.932Z,20.04
2017-07-12T04:06:08.958Z,20.06
2017-07-12T04:07:08.978Z,20.11
2017-07-12T04:08:08.798Z,20.06
2017-07-12T04:09:08.696Z,20.11
2017-07-12T04:10:08.723Z,20.18
2017-07-12T04:11:08.870Z,20.14
2017-07-12T04:12:08.770Z,20.16
2017-07-12T04:13:09.133Z,20.11
2017-07-12T04:14:08.494Z,20.11
2017-07-12T04:15:08.515Z,20.16
2017-07-12T04:16:09.194Z,20.13
2017-07-12T04:17:09.217Z,20.11
2017-07-12T04:18:08.584Z,20.18
2017-07-12T04:19:08.932Z,20.16
2017-07-12T04:20:09.284Z,20.21
2017-07-12T04:21:09.300Z,20.18
2017-07-12T04:22:08.677Z,20.19
2017-07-12T04:23:09.473Z,20.16
2017-07-12T04:24:09.370Z,20.13
2017-07-12T04:25:08.747Z,20.14
2017-07-12T04:26:09.099Z,20.18
2017-07-12T04:27:09.449Z,20.21
2017-07-12T04:28:09.152Z,20.16
2017-07-12T04:29:09.163Z,20.14
2017-07-12T04:30:09.510Z,20.18
2017-07-12T04:31:09.542Z,20.16
2017-07-12T04:32:09.238Z,20.16
2017-07-12T04:33:09.587Z,20.14
2017-07-12T04:34:08.959Z,20.24
2017-07-12T04:35:09.308Z,20.14
2017-07-12T04:36:09.006Z,20.24
2017-07-12T04:37:09.668Z,20.16
2017-07-12T04:38:09.698Z,20.13
2017-07-12T04:39:09.721Z,20.13
2017-07-12T04:40:09.427Z,20.25
2017-07-12T04:41:09.893Z,20.26
2017-07-12T04:42:09.472Z,20.26
2017-07-12T04:43:09.821Z,20.25
2017-07-12T04:44:09.519Z,20.13
2017-07-12T04:45:09.539Z,20.28
2017-07-12T04:46:09.241Z,20.31
2017-07-12T04:47:09.582Z,20.28
2017-07-12T04:48:09.611Z,20.36
2017-07-12T04:49:09.649Z,20.25
2017-07-12T04:50:09.330Z,20.28
2017-07-12T04:51:09.678Z,20.39
2017-07-12T04:52:09.380Z,20.34
2017-07-12T04:53:10.057Z,20.36
2017-07-12T04:54:09.747Z,20.39
2017-07-12T04:55:09.775Z,20.31
2017-07-12T04:56:09.794Z,20.47
2017-07-12T04:57:09.818Z,20.37
2017-07-12T04:58:10.171Z,20.29
2017-07-12T04:59:09.864Z,20.41
2017-07-12T05:00:10.218Z,20.55
2017-07-12T05:01:09.911Z,20.4
2017-07-12T05:02:09.932Z,20.43
2017-07-12T05:03:09.961Z,20.51
2017-07-12T05:04:10.055Z,20.44
2017-07-12T05:05:10.003Z,20.47
2017-07-12T05:06:10.360Z,20.43
2017-07-12T05:07:10.377Z,20.4
2017-07-12T05:08:10.401Z,20.39
2017-07-12T05:09:10.100Z,20.56
2017-07-12T05:10:10.133Z,20.51
2017-07-12T05:11:10.153Z,20.51
2017-07-12T05:12:10.171Z,20.58
2017-07-12T05:13:10.192Z,20.58
2017-07-12T05:14:10.602Z,20.59
2017-07-12T05:15:10.564Z,20.59
2017-07-12T05:16:10.583Z,20.62
2017-07-12T05:17:10.605Z,20.6
2017-07-12T05:18:10.317Z,20.7
2017-07-12T05:19:10.337Z,20.77
2017-07-12T05:20:10.689Z,20.72
2017-07-12T05:21:10.712Z,20.81
2017-07-12T05:22:10.728Z,20.87
2017-07-12T05:23:10.109Z,20.84
2017-07-12T05:24:10.456Z,20.85
2017-07-12T05:25:10.808Z,20.84
2017-07-12T05:26:10.825Z,20.93
2017-07-12T05:27:10.846Z,20.95
2017-07-12T05:28:10.551Z,20.99
2017-07-12T05:29:10.897Z,20.92
2017-07-12T05:30:10.930Z,21.02
2017-07-12T05:31:10.942Z,21
2017-07-12T05:32:11.038Z,21.05
2017-07-12T05:33:10.669Z,20.99
2017-07-12T05:34:10.367Z,21.03
2017-07-12T05:35:11.037Z,21.03
2017-07-12T05:36:10.739Z,21.09
2017-07-12T05:37:10.759Z,21.18
2017-07-12T05:38:10.784Z,21.12
2017-07-12T05:39:10.807Z,21.15
2017-07-12T05:40:11.157Z,21.22
2017-07-12T05:41:10.853Z,21.21
2017-07-12T05:42:10.558Z,21.21
2017-07-12T05:43:10.578Z,21.2
2017-07-12T05:44:11.246Z,21.27
2017-07-12T05:45:10.949Z,21.27
2017-07-12T05:46:10.976Z,21.25
2017-07-12T05:47:11.115Z,21.32
2017-07-12T05:48:11.473Z,21.35
2017-07-12T05:49:11.242Z,21.36
2017-07-12T05:50:11.069Z,21.37
2017-07-12T05:51:11.091Z,21.37
2017-07-12T05:52:11.444Z,21.39
2017-07-12T05:53:11.149Z,21.32
2017-07-12T05:54:11.166Z,21.29
2017-07-12T05:55:11.184Z,21.36
2017-07-12T05:56:11.213Z,21.42
2017-07-12T05:57:11.564Z,21.45
2017-07-12T05:58:11.589Z,21.5
2017-07-12T05:59:11.279Z,21.6
2017-07-12T06:00:11.307Z,21.6
2017-07-12T06:01:11.665Z,21.6
2017-07-12T06:02:11.354Z,21.55
2017-07-12T06:03:11.392Z,21.58
2017-07-12T06:04:11.724Z,21.58
2017-07-12T06:05:11.441Z,21.62
2017-07-12T06:06:11.772Z,21.64
2017-07-12T06:07:11.470Z,21.57
2017-07-12T06:08:11.823Z,21.62
2017-07-12T06:09:11.520Z,21.77
2017-07-12T06:10:11.867Z,21.72
2017-07-12T06:11:11.891Z,21.67
2017-07-12T06:12:11.272Z,21.76
2017-07-12T06:13:11.619Z,21.8
2017-07-12T06:14:11.638Z,21.76
2017-07-12T06:15:11.667Z,21.91
2017-07-12T06:16:11.695Z,21.85
2017-07-12T06:17:12.038Z,21.88
2017-07-12T06:18:11.784Z,21.91
2017-07-12T06:19:11.832Z,21.93
2017-07-12T06:20:11.795Z,21.98
2017-07-12T06:21:11.490Z,22.02
2017-07-12T06:22:11.511Z,22.06
2017-07-12T06:23:11.535Z,22.06
2017-07-12T06:24:12.201Z,21.96
2017-07-12T06:25:11.907Z,22.04
2017-07-12T06:26:12.253Z,22.06
2017-07-12T06:27:12.439Z,22.06
2017-07-12T06:28:12.301Z,22.17
2017-07-12T06:29:12.330Z,22.11
2017-07-12T06:30:12.030Z,22.14
2017-07-12T06:31:12.051Z,22.26
2017-07-12T06:32:12.078Z,22.23
2017-07-12T06:33:12.102Z,22.23
2017-07-12T06:34:12.124Z,22.26
2017-07-12T06:35:12.169Z,22.3
2017-07-12T06:36:12.512Z,22.41
2017-07-12T06:37:12.530Z,22.32
2017-07-12T06:38:12.545Z,22.38
2017-07-12T06:39:12.247Z,22.39
2017-07-12T06:40:11.946Z,22.39
2017-07-12T06:41:12.291Z,22.5
2017-07-12T06:42:12.323Z,22.5
2017-07-12T06:43:12.358Z,22.53
2017-07-12T06:44:12.369Z,22.57
2017-07-12T06:45:12.439Z,22.47
2017-07-12T06:46:12.418Z,22.47
2017-07-12T06:47:12.767Z,22.54
2017-07-12T06:48:12.793Z,22.5
2017-07-12T06:49:12.492Z,22.55
2017-07-12T06:50:12.189Z,22.59
2017-07-12T06:51:12.661Z,22.59
2017-07-12T06:52:12.951Z,22.62
2017-07-12T06:53:12.588Z,22.7
2017-07-12T06:54:13.048Z,22.68
2017-07-12T06:55:12.641Z,22.69
2017-07-12T06:56:12.343Z,22.65
2017-07-12T06:57:12.364Z,22.75
2017-07-12T06:58:12.388Z,22.78
2017-07-12T06:59:12.742Z,22.8
2017-07-12T07:00:12.767Z,22.8
2017-07-12T07:01:13.120Z,22.8
2017-07-12T07:02:13.143Z,22.93
2017-07-12T07:03:12.840Z,22.88
2017-07-12T07:04:13.191Z,22.83
2017-07-12T07:05:13.206Z,22.91
2017-07-12T07:06:12.588Z,22.87
2017-07-12T07:07:12.935Z,22.94
2017-07-12T07:08:12.637Z,23.02
2017-07-12T07:09:12.986Z,22.99
2017-07-12T07:10:13.011Z,23
2017-07-12T07:11:13.359Z,22.99
2017-07-12T07:12:13.383Z,23.02
2017-07-12T07:13:13.409Z,23.12
2017-07-12T07:14:13.107Z,23.15
2017-07-12T07:15:13.129Z,23.2
2017-07-12T07:16:13.487Z,23.27
2017-07-12T07:17:13.512Z,23.25
2017-07-12T07:18:13.541Z,23.27
2017-07-12T07:19:13.355Z,23.23
2017-07-12T07:20:13.258Z,23.24
2017-07-12T07:21:13.603Z,23.37
2017-07-12T07:22:12.984Z,23.39
2017-07-12T07:23:13.008Z,23.37
2017-07-12T07:24:13.361Z,23.47
2017-07-12T07:25:13.461Z,23.44
2017-07-12T07:26:13.737Z,23.51
2017-07-12T07:27:13.115Z,23.54
2017-07-12T07:28:13.459Z,23.63
2017-07-12T07:29:13.496Z,23.63
2017-07-12T07:30:13.832Z,23.65
2017-07-12T07:31:13.209Z,23.73
2017-07-12T07:32:13.557Z,23.66
2017-07-12T07:33:13.906Z,23.77
2017-07-12T07:34:13.620Z,23.77
2017-07-12T07:35:14.048Z,23.74
2017-07-12T07:36:13.821Z,23.74
2017-07-12T07:37:13.887Z,23.76
2017-07-12T07:38:14.211Z,23.77
2017-07-12T07:39:14.181Z,23.83
2017-07-12T07:40:14.168Z,23.87
2017-07-12T07:41:13.982Z,23.88
2017-07-12T07:42:14.141Z,23.95
2017-07-12T07:43:13.838Z,23.93
2017-07-12T07:44:14.190Z,24.03
2017-07-12T07:45:14.208Z,24.1
2017-07-12T07:46:14.237Z,24.05
2017-07-12T07:47:13.940Z,24.13
2017-07-12T07:48:14.288Z,24.17
2017-07-12T07:49:13.989Z,24.24
2017-07-12T07:50:13.688Z,24.32
2017-07-12T07:51:14.364Z,24.39
2017-07-12T07:52:14.389Z,24.45
2017-07-12T07:53:14.092Z,24.43
2017-07-12T07:54:14.449Z,24.4
2017-07-12T07:55:14.144Z,24.51
2017-07-12T07:56:14.500Z,24.53
2017-07-12T07:57:14.522Z,24.57
2017-07-12T07:58:14.541Z,24.61
2017-07-12T07:59:14.582Z,24.6
2017-07-12T08:00:14.589Z,24.63
2017-07-12T08:01:14.625Z,24.58
2017-07-12T08:02:14.323Z,24.61
2017-07-12T08:03:14.347Z,24.68
2017-07-12T08:04:14.706Z,24.76
2017-07-12T08:05:14.075Z,24.77
2017-07-12T08:06:14.422Z,24.8
2017-07-12T08:07:14.776Z,24.76
2017-07-12T08:08:14.803Z,24.69
2017-07-12T08:09:14.826Z,24.81
2017-07-12T08:10:14.854Z,24.84
2017-07-12T08:11:14.554Z,24.85
2017-07-12T08:12:14.254Z,24.85
2017-07-12T08:13:14.621Z,24.86
2017-07-12T08:14:14.967Z,24.95
2017-07-12T08:15:14.355Z,24.96
2017-07-12T08:16:14.684Z,24.95
2017-07-12T08:17:15.034Z,24.96
2017-07-12T08:18:15.061Z,24.96
2017-07-12T08:19:14.764Z,24.96
2017-07-12T08:20:14.789Z,24.98
2017-07-12T08:21:14.815Z,25.1
2017-07-12T08:22:15.160Z,24.96
2017-07-12T08:23:14.542Z,25.03
2017-07-12T08:24:14.898Z,25.06
2017-07-12T08:25:14.926Z,25.1
2017-07-12T08:26:15.269Z,24.98
2017-07-12T08:27:14.676Z,25.11
2017-07-12T08:28:15.324Z,25.06
2017-07-12T08:29:15.342Z,25.13
2017-07-12T08:30:15.376Z,25.13
2017-07-12T08:31:15.078Z,25.14
2017-07-12T08:32:15.432Z,25.1
2017-07-12T08:33:14.807Z,25.17
2017-07-12T08:34:15.478Z,25.13
2017-07-12T08:35:14.859Z,25.11
2017-07-12T08:36:15.207Z,25.14
2017-07-12T08:37:14.917Z,25.17
2017-07-12T08:38:15.578Z,25.13
2017-07-12T08:39:15.287Z,25.18
2017-07-12T08:40:15.315Z,25.17
2017-07-12T08:41:15.341Z,25.22
2017-07-12T08:42:15.704Z,25.23
2017-07-12T08:43:15.391Z,25.18
2017-07-12T08:44:15.424Z,25.23
2017-07-12T08:45:15.121Z,25.25
2017-07-12T08:46:15.797Z,25.22
2017-07-12T08:47:15.174Z,25.29
2017-07-12T08:48:15.858Z,25.29
2017-07-12T08:49:15.557Z,25.26
2017-07-12T08:50:15.901Z,25.38
2017-07-12T08:51:15.931Z,25.29
2017-07-12T08:52:15.963Z,25.22
2017-07-12T08:53:15.338Z,25.31
2017-07-12T08:54:15.359Z,25.28
2017-07-12T08:55:15.386Z,25.29
2017-07-12T08:56:15.736Z,25.38
2017-07-12T08:57:15.785Z,25.35
2017-07-12T08:58:15.874Z,25.32
2017-07-12T08:59:16.378Z,25.4
2017-07-12T09:00:15.838Z,25.31
2017-07-12T09:01:15.870Z,25.33
2017-07-12T09:02:15.893Z,25.4
2017-07-12T09:03:15.924Z,25.4
2017-07-12T09:04:15.946Z,25.4
2017-07-12T09:05:15.650Z,25.35
2017-07-12T09:06:16.329Z,25.32
2017-07-12T09:07:16.358Z,25.41
2017-07-12T09:08:16.059Z,25.44
2017-07-12T09:09:16.412Z,25.35
2017-07-12T09:10:16.113Z,25.31
2017-07-12T09:11:15.810Z,25.36
2017-07-12T09:12:16.485Z,25.33
2017-07-12T09:13:16.198Z,25.32
2017-07-12T09:14:15.890Z,25.29
2017-07-12T09:15:16.569Z,25.25
2017-07-12T09:16:16.272Z,25.26
2017-07-12T09:17:16.664Z,25.29
2017-07-12T09:18:16.323Z,25.18
2017-07-12T09:19:16.353Z,25.16
2017-07-12T09:20:16.379Z,25.18
2017-07-12T09:21:16.727Z,25.21
2017-07-12T09:22:16.106Z,25.11
2017-07-12T09:23:16.131Z,25.14
2017-07-12T09:33:16.735Z,24.95
2017-07-12T09:34:17.171Z,24.95
2017-07-12T09:35:16.985Z,24.96
2017-07-12T09:36:16.682Z,24.98
2017-07-12T09:37:16.946Z,24.95
2017-07-12T09:38:16.962Z,24.95
2017-07-12T09:39:17.205Z,24.98
2017-07-12T09:40:16.913Z,24.92
2017-07-12T09:41:16.932Z,24.99
2017-07-12T09:42:16.958Z,24.96
2017-07-12T09:43:16.990Z,25.03
2017-07-12T09:44:17.018Z,24.98
2017-07-12T09:45:16.723Z,24.95
2017-07-12T09:46:17.068Z,24.95
2017-07-12T09:47:17.097Z,24.96
2017-07-12T09:48:16.971Z,25.01
2017-07-12T09:49:17.606Z,24.96
2017-07-12T09:50:17.037Z,24.98
2017-07-12T09:51:17.299Z,24.98
2017-07-12T09:52:17.623Z,24.92
2017-07-12T09:53:17.336Z,25.01
2017-07-12T09:54:17.696Z,24.89
2017-07-12T09:55:17.727Z,24.86
2017-07-12T09:56:17.403Z,24.86
2017-07-12T09:57:17.372Z,24.85
2017-07-12T09:58:17.391Z,24.84
2017-07-12T09:59:17.740Z,24.8
2017-07-12T10:00:17.440Z,24.85
2017-07-12T10:01:17.467Z,24.88
2017-07-12T10:02:17.929Z,24.84
2017-07-12T10:03:17.626Z,24.81
2017-07-12T10:04:17.625Z,24.74
2017-07-12T10:05:17.948Z,24.7
2017-07-12T10:06:17.280Z,24.78
2017-07-12T10:07:17.304Z,24.76
2017-07-12T10:08:18.088Z,24.74
2017-07-12T10:09:17.357Z,24.74
2017-07-12T10:10:17.790Z,24.8
2017-07-12T10:11:17.741Z,24.78
2017-07-12T10:12:17.438Z,24.74
2017-07-12T10:13:18.230Z,24.8
2017-07-12T10:14:17.811Z,24.66
2017-07-12T10:15:17.840Z,24.58
2017-07-12T10:16:17.666Z,24.65
2017-07-12T10:17:18.403Z,24.58
2017-07-12T10:18:18.028Z,24.58
2017-07-12T10:19:17.945Z,24.65
2017-07-12T10:20:18.425Z,24.61
2017-07-12T10:21:18.000Z,24.54
2017-07-12T10:22:18.097Z,24.57
2017-07-12T10:23:18.047Z,24.54
2017-07-12T10:24:18.408Z,24.5
2017-07-12T10:25:18.107Z,24.54
2017-07-12T10:26:18.134Z,24.43
2017-07-12T10:27:18.374Z,24.39
2017-07-12T10:28:18.322Z,24.45
2017-07-12T10:29:18.213Z,24.42
2017-07-12T10:30:18.560Z,24.47
2017-07-12T10:31:18.593Z,24.48
2017-07-12T10:32:17.963Z,24.53
2017-07-12T10:33:18.678Z,24.39
2017-07-12T10:34:18.340Z,24.4
2017-07-12T10:35:18.366Z,24.47
2017-07-12T10:36:18.398Z,24.45
2017-07-12T10:37:18.429Z,24.45
2017-07-12T10:38:18.794Z,24.42
2017-07-12T10:39:18.475Z,24.47
2017-07-12T10:40:18.506Z,24.38
2017-07-12T10:41:18.849Z,24.47
2017-07-12T10:42:18.884Z,24.51
2017-07-12T10:43:18.909Z,24.4
2017-07-12T10:44:18.612Z,24.47
2017-07-12T10:45:18.954Z,24.42
2017-07-12T10:46:18.989Z,24.38
2017-07-12T10:47:18.687Z,24.3
2017-07-12T10:48:18.718Z,24.33
2017-07-12T10:49:19.065Z,24.38
2017-07-12T10:50:18.767Z,24.28
2017-07-12T10:51:18.467Z,24.23
2017-07-12T10:52:19.146Z,24.28
2017-07-12T10:53:19.172Z,24.26
2017-07-12T10:54:19.196Z,24.18
2017-07-12T10:55:18.895Z,24.14
2017-07-12T10:56:19.247Z,24.14
2017-07-12T10:57:19.279Z,24.03
2017-07-12T10:58:18.978Z,24.06
2017-07-12T10:59:19.331Z,24.08
2017-07-12T11:00:19.032Z,24.01
2017-07-12T11:01:18.731Z,23.99
2017-07-12T11:02:19.078Z,23.96
2017-07-12T11:03:19.111Z,24.02
2017-07-12T11:04:19.137Z,23.88
2017-07-12T11:05:19.484Z,23.88
2017-07-12T11:06:19.189Z,23.95
2017-07-12T11:07:19.208Z,23.92
2017-07-12T11:08:19.239Z,23.91
2017-07-12T11:09:19.598Z,23.81
2017-07-12T11:10:19.626Z,23.83
2017-07-12T11:11:19.326Z,23.83
2017-07-12T11:12:19.341Z,23.84
2017-07-12T11:13:19.367Z,23.78
2017-07-12T11:14:19.396Z,23.74
2017-07-12T11:15:19.751Z,23.83
2017-07-12T11:16:19.131Z,23.8
2017-07-12T11:17:19.919Z,23.77
2017-07-12T11:18:19.990Z,23.78
2017-07-12T11:19:19.202Z,23.8
2017-07-12T11:20:19.684Z,23.71
2017-07-12T11:21:19.352Z,23.73
2017-07-12T11:22:19.931Z,23.71
2017-07-12T11:23:19.649Z,23.71
2017-07-12T11:24:19.354Z,23.73
2017-07-12T11:25:20.004Z,23.73
2017-07-12T11:26:19.714Z,23.73
2017-07-12T11:27:19.734Z,23.66
2017-07-12T11:28:19.772Z,23.61
2017-07-12T11:29:19.863Z,23.59
2017-07-12T11:30:19.816Z,23.56
2017-07-12T11:31:20.173Z,23.59
2017-07-12T11:32:19.865Z,23.56
2017-07-12T11:33:19.895Z,23.55
2017-07-12T11:34:20.248Z,23.46
2017-07-12T11:35:20.041Z,23.48
2017-07-12T11:36:19.974Z,23.47
2017-07-12T11:37:19.997Z,23.39
2017-07-12T11:38:20.348Z,23.39
2017-07-12T11:39:20.370Z,23.34
2017-07-12T11:40:20.078Z,23.34
2017-07-12T11:41:20.106Z,23.27
2017-07-12T11:42:20.455Z,23.27
2017-07-12T11:43:20.151Z,23.24
2017-07-12T11:44:20.504Z,23.32
2017-07-12T11:45:20.533Z,23.23
2017-07-12T11:46:20.237Z,23.21
2017-07-12T11:47:20.587Z,23.18
2017-07-12T11:48:20.609Z,23.1
2017-07-12T11:49:20.640Z,23.08
2017-07-12T11:50:20.013Z,23.15
2017-07-12T11:51:20.361Z,23.12
2017-07-12T11:52:20.390Z,23.08
2017-07-12T11:53:20.429Z,23.09
2017-07-12T11:54:20.442Z,23
2017-07-12T11:55:20.791Z,23
2017-07-12T11:56:20.817Z,23.02
2017-07-12T11:57:20.839Z,22.99
2017-07-12T11:58:20.874Z,22.93
2017-07-12T11:59:20.575Z,22.94
2017-07-12T12:00:20.268Z,22.85
2017-07-12T12:01:20.621Z,22.91
2017-07-12T12:02:20.979Z,22.87
2017-07-12T12:03:20.670Z,22.85
2017-07-12T12:04:20.697Z,22.81
2017-07-12T12:05:20.813Z,22.84
2017-07-12T12:06:20.950Z,22.83
2017-07-12T12:07:21.001Z,22.76
2017-07-12T12:08:20.803Z,22.75
2017-07-12T12:09:20.597Z,22.8
2017-07-12T12:10:21.174Z,22.7
2017-07-12T12:11:21.201Z,22.75
2017-07-12T12:12:21.339Z,22.68
2017-07-12T12:13:20.924Z,22.72
2017-07-12T12:14:20.958Z,22.7
2017-07-12T12:15:20.979Z,22.69
2017-07-12T12:16:20.682Z,22.68
2017-07-12T12:17:20.708Z,22.7
2017-07-12T12:18:21.475Z,22.7
2017-07-12T12:19:20.759Z,22.68
2017-07-12T12:20:21.110Z,22.68
2017-07-12T12:21:21.129Z,22.65
2017-07-12T12:22:20.828Z,22.68
2017-07-12T12:23:21.178Z,22.63
2017-07-12T12:24:21.538Z,22.63
2017-07-12T12:25:21.646Z,22.62
2017-07-12T12:26:21.261Z,22.63
2017-07-12T12:27:21.609Z,22.57
2017-07-12T12:28:21.310Z,22.63
2017-07-12T12:29:21.662Z,22.59
2017-07-12T12:30:21.683Z,22.6
2017-07-12T12:31:21.710Z,22.59
2017-07-12T12:32:21.413Z,22.66
2017-07-12T12:33:21.765Z,22.62
2017-07-12T12:34:21.789Z,22.6
2017-07-12T12:35:21.487Z,22.57
2017-07-12T12:36:21.487Z,22.63
2017-07-12T12:37:21.874Z,22.63
2017-07-12T12:38:21.739Z,22.59
2017-07-12T12:39:21.593Z,22.63
2017-07-12T12:40:21.614Z,22.62
2017-07-12T12:41:21.638Z,22.57
2017-07-12T12:42:22.000Z,22.57
2017-07-12T12:43:22.024Z,22.6
2017-07-12T12:44:21.517Z,22.6
2017-07-12T12:45:21.910Z,22.54
2017-07-12T12:46:21.443Z,22.51
2017-07-12T12:47:21.472Z,22.47
2017-07-12T12:48:21.912Z,22.5
2017-07-12T12:49:21.521Z,22.51
2017-07-12T12:50:21.917Z,22.51
2017-07-12T12:51:22.212Z,22.43
2017-07-12T12:52:21.921Z,22.44
2017-07-12T12:53:22.264Z,22.47
2017-07-12T12:54:22.376Z,22.55
2017-07-12T12:55:22.092Z,22.55
2017-07-12T12:56:22.420Z,22.39
2017-07-12T12:57:22.459Z,22.36
2017-07-12T12:58:21.862Z,22.54
2017-07-12T12:59:22.214Z,22.53
2017-07-12T13:00:22.123Z,22.43
2017-07-12T13:01:22.148Z,22.47
2017-07-12T13:02:22.169Z,22.41
2017-07-12T13:03:22.282Z,22.43
2017-07-12T13:04:22.541Z,22.38